Time;durP1;ratioP1;P1;durP2;ratioP2;P2;SDS_P1;SDS_P2;PMS_P1;PMS_P2;Temp;Humidity;BMP_temperature;BMP_pressure;BME280_temperature;BME280_humidity;BME280_pressure;Samples;Min_cycle;Max_cycle;Signal;HPM_P1;HPM_P2
2022/11/04 00:01:07;;;;;;;0.40;0.40;;;24.10;36.30;;;;;;4971166;28;20225;-62
2022/11/04 00:03:39;;;;;;;0.30;0.30;;;24.10;36.20;;;;;;4984796;28;20643;-64
2022/11/04 00:06:11;;;;;;;0.30;0.30;;;24.20;36.30;;;;;;4992565;28;20240;-64
2022/11/04 00:08:42;;;;;;;0.20;0.20;;;24.20;36.30;;;;;;4974344;28;20725;-55
2022/11/04 00:14:00;;;;;;;1.23;0.35;;;24.20;36.30;;;;;;4988301;28;20209;-67
2022/11/04 00:19:19;;;;;;;0.68;0.20;;;24.20;36.10;;;;;;4993403;28;20696;-60
2022/11/04 00:30:21;;;;;;;0.60;0.40;;;24.30;35.80;;;;;;4993301;28;20225;-52
2022/11/04 00:35:41;;;;;;;1.27;0.40;;;24.40;35.90;;;;;;4990445;28;20208;-62
2022/11/04 00:38:11;;;;;;;0.65;0.30;;;24.40;35.90;;;;;;4992355;28;20202;-52
2022/11/04 00:40:42;;;;;;;1.58;0.30;;;24.40;35.90;;;;;;4975706;28;20262;-54
2022/11/04 00:43:14;;;;;;;0.30;0.30;;;24.50;36.00;;;;;;4973619;28;20206;-55
2022/11/04 00:45:45;;;;;;;0.65;0.38;;;24.50;36.00;;;;;;4973885;28;20208;-67
2022/11/04 00:48:15;;;;;;;0.50;0.20;;;24.50;36.10;;;;;;4973450;28;20658;-66
2022/11/04 00:50:48;;;;;;;0.60;0.47;;;24.50;36.10;;;;;;4991569;28;20217;-64
2022/11/04 00:53:19;;;;;;;0.45;0.30;;;24.50;36.70;;;;;;4992742;28;20201;-69
2022/11/04 00:55:49;;;;;;;0.85;0.40;;;24.50;36.10;;;;;;4993004;28;20654;-56
2022/11/04 00:58:20;;;;;;;0.55;0.30;;;24.60;36.00;;;;;;4993192;28;20209;-60
2022/11/04 01:00:51;;;;;;;0.43;0.28;;;24.60;35.90;;;;;;4974953;28;20452;-65
2022/11/04 01:03:22;;;;;;;0.85;0.25;;;24.60;35.90;;;;;;4973787;28;20202;-56
2022/11/04 01:05:54;;;;;;;1.00;0.43;;;24.70;35.90;;;;;;4991059;28;20201;-59
2022/11/04 01:08:25;;;;;;;0.45;0.30;;;24.70;35.80;;;;;;4992791;28;20225;-61
2022/11/04 01:10:56;;;;;;;0.80;0.20;;;24.70;35.80;;;;;;4992418;28;20205;-56
2022/11/04 01:13:27;;;;;;;0.85;0.20;;;24.80;35.90;;;;;;4976267;28;20678;-64
2022/11/04 01:16:00;;;;;;;0.35;0.22;;;24.80;35.90;;;;;;4973387;28;20205;-65
2022/11/04 01:18:31;;;;;;;0.28;0.13;;;24.80;35.90;;;;;;4972794;28;20221;-54
2022/11/04 01:21:07;;;;;;;0.50;0.28;;;24.80;35.90;;;;;;4989983;28;20236;-68
2022/11/04 01:23:38;;;;;;;0.28;0.28;;;24.90;35.90;;;;;;4992791;28;20204;-61
2022/11/04 01:26:09;;;;;;;0.95;0.22;;;24.90;35.90;;;;;;4974053;28;20285;-58
2022/11/04 01:28:40;;;;;;;0.20;0.20;;;24.90;35.90;;;;;;4973035;28;20536;-64
2022/11/04 01:31:12;;;;;;;0.38;0.25;;;24.90;35.90;;;;;;4973024;28;20555;-61
2022/11/04 01:33:43;;;;;;;0.43;0.32;;;24.90;35.80;;;;;;4973050;28;20242;-61
2022/11/04 01:36:17;;;;;;;0.50;0.30;;;25.00;35.70;;;;;;4991615;28;20216;-58
2022/11/04 01:38:47;;;;;;;0.30;0.28;;;25.00;35.60;;;;;;4974060;28;20693;-63
2022/11/04 01:41:21;;;;;;;0.93;0.30;;;25.10;35.50;;;;;;4972400;28;20226;-55
2022/11/04 01:43:55;;;;;;;0.38;0.30;;;25.10;35.40;;;;;;4972716;28;20198;-65
2022/11/04 01:46:31;;;;;;;0.30;0.30;;;25.10;35.30;;;;;;4972308;28;20213;-66
2022/11/04 01:49:12;;;;;;;0.17;0.10;;;25.10;35.20;;;;;;4975752;28;20291;-54
2022/11/04 01:51:47;;;;;;;0.90;0.30;;;25.10;35.20;;;;;;4991476;28;20208;-68
2022/11/04 01:54:19;;;;;;;0.32;0.25;;;25.20;35.30;;;;;;4975513;28;20201;-60
2022/11/04 01:56:50;;;;;;;0.80;0.50;;;25.20;35.30;;;;;;4971764;28;20198;-55
2022/11/04 01:59:27;;;;;;;0.20;0.20;;;25.30;35.40;;;;;;4971785;28;20222;-62
2022/11/04 02:01:57;;;;;;;0.22;0.20;;;25.20;35.30;;;;;;4972302;28;20201;-55
2022/11/04 02:04:29;;;;;;;0.55;0.30;;;25.30;35.20;;;;;;4975100;28;20189;-56
2022/11/04 02:07:04;;;;;;;0.55;0.40;;;25.30;35.20;;;;;;4989619;28;20289;-58
2022/11/04 02:09:37;;;;;;;0.40;0.20;;;25.30;35.10;;;;;;4990184;28;20319;-63
2022/11/04 02:14:55;;;;;;;0.90;0.38;;;25.30;34.70;;;;;;4990881;28;20729;-56
2022/11/04 02:17:43;;;;;;;0.38;0.30;;;25.30;34.50;;;;;;5018170;23;20727;-42
2022/11/04 02:20:31;;;;;;;0.22;0.22;;;25.40;34.30;;;;;;5002486;28;20241;-46
2022/11/04 02:23:29;;;;;;;0.30;0.20;;;25.40;34.20;;;;;;4991734;28;20197;-41
2022/11/04 02:26:28;;;;;;;0.43;0.30;;;25.50;34.10;;;;;;4990878;28;20681;-41
2022/11/04 02:29:34;;;;;;;1.33;0.30;;;25.50;34.10;;;;;;4991074;28;20703;-43
2022/11/04 02:32:14;;;;;;;0.77;0.38;;;25.50;34.10;;;;;;4977897;28;20206;-47
2022/11/04 02:34:57;;;;;;;0.85;0.30;;;25.50;34.10;;;;;;5008449;28;20217;-43
2022/11/04 02:37:39;;;;;;;0.73;0.22;;;25.60;34.20;;;;;;5011250;28;20711;-42
2022/11/04 02:40:22;;;;;;;0.47;0.32;;;25.60;34.20;;;;;;5010050;28;20255;-43
2022/11/04 02:43:00;;;;;;;1.15;0.40;;;25.60;34.20;;;;;;5009883;28;20189;-46
2022/11/04 02:45:39;;;;;;;0.55;0.30;;;25.60;34.20;;;;;;5010361;28;20203;-42
2022/11/04 02:48:14;;;;;;;1.42;0.30;;;25.70;34.10;;;;;;5010395;28;20200;-43
2022/11/04 02:50:47;;;;;;;0.65;0.40;;;25.70;34.10;;;;;;5010079;28;20207;-42
2022/11/04 02:53:23;;;;;;;0.30;0.20;;;25.70;33.90;;;;;;5008135;28;20653;-46
2022/11/04 02:55:58;;;;;;;0.80;0.57;;;25.80;34.00;;;;;;4990295;28;20716;-43
2022/11/04 02:58:33;;;;;;;0.40;0.30;;;25.80;33.90;;;;;;4990627;28;20219;-42
2022/11/04 03:01:09;;;;;;;0.50;0.20;;;25.80;33.80;;;;;;4990404;28;20697;-44
2022/11/04 03:03:45;;;;;;;1.00;0.30;;;25.90;33.90;;;;;;4990717;28;20263;-41
2022/11/04 03:06:19;;;;;;;0.57;0.30;;;25.90;33.80;;;;;;4995429;28;20202;-43
2022/11/04 03:08:52;;;;;;;0.20;0.20;;;26.00;33.80;;;;;;4990455;28;20300;-46
2022/11/04 03:11:26;;;;;;;0.60;0.22;;;26.00;33.80;;;;;;4990497;28;20209;-42
2022/11/04 03:14:00;;;;;;;0.73;0.40;;;26.00;33.80;;;;;;4990656;28;20207;-42
2022/11/04 03:16:41;;;;;;;0.85;0.40;;;26.10;33.80;;;;;;4990960;28;20256;-44
2022/11/04 03:19:17;;;;;;;0.60;0.50;;;26.10;33.70;;;;;;4995792;28;20224;-45
2022/11/04 03:21:53;;;;;;;0.50;0.30;;;26.10;33.70;;;;;;5009403;28;20230;-48
2022/11/04 03:24:24;;;;;;;0.45;0.30;;;26.10;33.60;;;;;;4994207;28;20204;-42
2022/11/04 03:27:00;;;;;;;1.02;0.40;;;26.20;33.50;;;;;;4989876;28;20228;-43
2022/11/04 03:29:35;;;;;;;0.57;0.40;;;26.20;33.30;;;;;;4989911;28;20658;-46
2022/11/04 03:32:19;;;;;;;0.98;0.40;;;26.20;33.30;;;;;;4990380;28;20550;-42
2022/11/04 03:34:50;;;;;;;0.30;0.20;;;26.30;33.20;;;;;;4991221;28;20206;-42
2022/11/04 03:37:21;;;;;;;0.85;0.40;;;26.30;33.20;;;;;;5011870;28;20197;-48
2022/11/04 03:39:52;;;;;;;2.40;0.80;;;26.40;33.10;;;;;;5013848;28;20685;-50
2022/11/04 03:42:24;;;;;;;0.77;0.30;;;26.40;33.10;;;;;;5013832;28;20196;-45
2022/11/04 03:44:57;;;;;;;0.73;0.45;;;26.40;33.10;;;;;;5013802;28;20283;-43
2022/11/04 03:47:31;;;;;;;1.08;0.30;;;26.50;33.20;;;;;;5001082;28;20197;-43
2022/11/04 03:50:09;;;;;;;0.77;0.40;;;26.50;33.10;;;;;;5005916;28;20224;-43
2022/11/04 03:52:40;;;;;;;0.80;0.50;;;26.50;33.10;;;;;;5013641;28;20663;-43
2022/11/04 03:55:13;;;;;;;0.50;0.20;;;26.50;33.30;;;;;;5004855;28;20654;-44
2022/11/04 03:57:52;;;;;;;1.42;0.40;;;26.60;33.40;;;;;;4993807;28;20208;-42
2022/11/04 04:00:24;;;;;;;0.32;0.30;;;26.60;33.50;;;;;;4993594;28;20696;-42
2022/11/04 04:03:11;;;;;;;0.40;0.25;;;26.60;33.50;;;;;;4996081;28;20190;-44
2022/11/04 04:05:49;;;;;;;0.65;0.35;;;26.70;33.30;;;;;;5001014;28;20254;-43
2022/11/04 04:08:31;;;;;;;0.52;0.30;;;26.70;33.10;;;;;;5013383;28;20200;-43
2022/11/04 04:11:09;;;;;;;1.23;0.50;;;26.70;33.00;;;;;;5013831;28;20204;-42
2022/11/04 04:13:47;;;;;;;1.75;0.45;;;26.80;32.90;;;;;;5013585;28;20280;-43
2022/11/04 04:16:21;;;;;;;0.75;0.40;;;26.80;32.90;;;;;;5013699;28;20562;-45
2022/11/04 04:18:56;;;;;;;0.50;0.20;;;26.80;32.80;;;;;;5013169;28;20374;-46
2022/11/04 04:21:31;;;;;;;0.95;0.40;;;26.80;32.90;;;;;;5012588;28;20220;-44
2022/11/04 04:29:42;;;;;;;1.55;0.50;;;26.90;33.40;;;;;;5013769;28;20216;-44
2022/11/04 04:32:13;;;;;;;0.90;0.30;;;26.90;33.50;;;;;;5013513;28;20201;-43
2022/11/04 04:34:46;;;;;;;0.30;0.30;;;27.00;33.50;;;;;;5012966;28;20204;-45
2022/11/04 04:37:22;;;;;;;1.50;0.43;;;27.00;33.40;;;;;;5012934;28;20208;-45
2022/11/04 04:45:34;;;;;;;0.93;0.40;;;27.00;33.80;;;;;;5008589;28;20207;-44
2022/11/04 04:48:05;;;;;;;0.82;0.40;;;27.00;33.60;;;;;;5007828;28;20199;-43
2022/11/04 04:50:39;;;;;;;1.08;0.47;;;27.00;33.60;;;;;;5004217;28;20201;-42
2022/11/04 04:53:10;;;;;;;1.35;0.55;;;27.00;33.60;;;;;;5013290;28;20202;-42
2022/11/04 04:55:41;;;;;;;0.45;0.30;;;27.10;33.60;;;;;;5012272;28;20189;-45
2022/11/04 04:58:12;;;;;;;0.73;0.35;;;27.10;33.60;;;;;;5013403;28;20203;-43
2022/11/04 05:00:43;;;;;;;2.03;0.50;;;27.10;33.60;;;;;;5013473;28;20217;-42
2022/11/04 05:03:14;;;;;;;2.42;0.60;;;27.10;33.70;;;;;;5012790;28;20201;-44
2022/11/04 05:05:47;;;;;;;0.70;0.30;;;27.10;33.80;;;;;;5013022;28;20299;-44
2022/11/04 05:08:18;;;;;;;1.30;0.45;;;27.10;33.60;;;;;;5012863;28;20196;-49
2022/11/04 05:10:49;;;;;;;2.17;0.47;;;27.10;34.00;;;;;;5012846;28;20219;-42
2022/11/04 05:13:29;;;;;;;1.10;0.50;;;27.20;33.30;;;;;;5012914;28;20201;-43
2022/11/04 05:16:04;;;;;;;1.23;0.50;;;27.20;33.20;;;;;;5024834;23;20198;-57
2022/11/04 05:18:35;;;;;;;1.65;0.60;;;27.20;33.20;;;;;;4989406;28;20592;-49
2022/11/04 05:21:10;;;;;;;0.70;0.40;;;27.20;33.50;;;;;;4983175;28;20221;-47
2022/11/04 05:23:41;;;;;;;0.75;0.50;;;27.20;33.60;;;;;;4993195;28;20201;-46
2022/11/04 05:26:12;;;;;;;0.68;0.43;;;27.20;33.70;;;;;;4993210;28;20193;-46
2022/11/04 05:28:43;;;;;;;0.90;0.45;;;27.20;33.80;;;;;;4992986;28;20589;-49
2022/11/04 05:31:14;;;;;;;2.17;0.70;;;27.20;33.80;;;;;;4992295;28;20194;-47
2022/11/04 05:33:45;;;;;;;0.93;0.40;;;27.20;33.80;;;;;;4992698;28;20201;-52
2022/11/04 05:36:19;;;;;;;1.30;0.68;;;27.20;33.60;;;;;;4991592;28;20193;-47
2022/11/04 05:38:54;;;;;;;1.95;0.70;;;27.20;33.40;;;;;;4992850;28;20568;-50
2022/11/04 05:41:27;;;;;;;2.20;0.60;;;27.20;33.20;;;;;;4998386;28;20255;-62
2022/11/04 05:44:00;;;;;;;0.95;0.40;;;27.20;33.10;;;;;;4992132;28;20193;-45
2022/11/04 05:46:31;;;;;;;0.95;0.40;;;27.20;32.80;;;;;;4992049;28;20193;-50
2022/11/04 05:49:02;;;;;;;2.35;0.47;;;27.20;32.50;;;;;;4991882;28;20761;-47
2022/11/04 05:51:35;;;;;;;1.92;0.80;;;27.10;32.50;;;;;;4992605;28;20618;-48
2022/11/04 05:54:06;;;;;;;0.80;0.40;;;27.10;32.40;;;;;;4992810;28;20193;-50
2022/11/04 05:56:36;;;;;;;1.30;0.52;;;27.10;32.60;;;;;;4992686;28;20223;-57
2022/11/04 05:59:07;;;;;;;1.42;0.63;;;27.10;32.60;;;;;;4991892;28;20209;-52
2022/11/04 06:01:42;;;;;;;0.75;0.40;;;27.10;32.60;;;;;;4992067;28;20632;-59
2022/11/04 06:04:18;;;;;;;1.05;0.60;;;27.10;32.60;;;;;;4991094;28;20677;-49
2022/11/04 06:06:51;;;;;;;0.75;0.43;;;27.10;32.50;;;;;;4992275;28;20199;-51
2022/11/04 06:09:37;;;;;;;0.73;0.40;;;27.10;32.60;;;;;;4991641;28;20697;-54
2022/11/04 06:12:13;;;;;;;1.73;0.68;;;27.10;32.50;;;;;;4992343;28;20198;-49
2022/11/04 06:14:45;;;;;;;1.30;0.50;;;27.20;32.50;;;;;;4991911;28;20209;-72
2022/11/04 06:17:18;;;;;;;1.13;0.50;;;27.20;32.60;;;;;;4992403;28;20325;-49
2022/11/04 06:19:49;;;;;;;0.98;0.50;;;27.10;32.60;;;;;;4992103;28;20236;-46
2022/11/04 06:22:22;;;;;;;2.15;0.55;;;27.10;32.60;;;;;;4991864;28;20298;-47
2022/11/04 06:24:52;;;;;;;1.30;0.60;;;27.10;32.50;;;;;;4991873;28;20201;-46
2022/11/04 06:27:23;;;;;;;2.05;0.60;;;27.10;32.60;;;;;;4991959;28;20572;-54
2022/11/04 06:29:54;;;;;;;10.80;7.28;;;27.10;32.60;;;;;;4992163;28;20222;-55
2022/11/04 06:32:25;;;;;;;9.05;6.15;;;27.10;32.60;;;;;;4991749;28;20193;-50
2022/11/04 06:34:55;;;;;;;10.05;6.60;;;27.10;32.70;;;;;;4991475;28;20653;-67
2022/11/04 06:37:28;;;;;;;12.68;5.93;;;27.10;32.80;;;;;;4991134;28;20280;-59
2022/11/04 06:39:59;;;;;;;13.35;7.50;;;27.10;32.80;;;;;;4995176;28;20216;-46
2022/11/04 06:42:29;;;;;;;14.40;7.47;;;27.10;32.70;;;;;;4991405;28;20221;-56
2022/11/04 06:45:00;;;;;;;10.90;7.43;;;27.00;32.60;;;;;;4991640;28;20202;-54
2022/11/04 06:47:31;;;;;;;10.85;7.03;;;27.00;32.70;;;;;;4991818;28;20208;-66
2022/11/04 06:50:02;;;;;;;9.63;6.90;;;27.00;32.80;;;;;;4990914;28;20618;-58
2022/11/04 06:52:34;;;;;;;8.90;6.20;;;27.00;32.80;;;;;;4990800;28;20310;-56
2022/11/04 06:55:05;;;;;;;8.77;6.13;;;27.00;32.70;;;;;;4990683;28;20653;-48
2022/11/04 06:57:36;;;;;;;11.15;6.05;;;27.00;32.50;;;;;;4990765;28;20255;-53
2022/11/04 07:00:07;;;;;;;7.47;5.13;;;27.00;32.30;;;;;;4990978;28;20689;-52
2022/11/04 07:02:39;;;;;;;9.35;5.32;;;26.90;32.30;;;;;;4990777;28;20225;-48
2022/11/04 07:05:11;;;;;;;8.40;5.10;;;26.90;32.50;;;;;;4990453;28;20602;-52
2022/11/04 07:07:46;;;;;;;7.35;4.63;;;26.80;32.30;;;;;;4990764;28;20220;-61
2022/11/04 07:10:17;;;;;;;9.13;4.50;;;26.80;32.40;;;;;;4990401;28;20706;-56
2022/11/04 07:12:48;;;;;;;7.63;4.40;;;26.80;32.30;;;;;;4989670;28;20251;-59
2022/11/04 07:15:19;;;;;;;7.50;4.10;;;26.70;32.40;;;;;;4992982;28;20205;-57
2022/11/04 07:17:49;;;;;;;7.07;4.10;;;26.70;32.40;;;;;;4989420;28;20209;-64
2022/11/04 07:20:21;;;;;;;5.03;3.47;;;26.70;32.50;;;;;;4989526;28;20248;-49
2022/11/04 07:22:56;;;;;;;4.63;3.28;;;26.60;32.50;;;;;;4989794;28;20585;-51
2022/11/04 07:25:26;;;;;;;6.97;3.38;;;26.60;32.60;;;;;;4990405;28;20197;-57
2022/11/04 07:27:57;;;;;;;6.93;3.40;;;26.60;32.60;;;;;;4990712;28;20568;-67
2022/11/04 07:30:28;;;;;;;6.85;3.13;;;26.50;32.50;;;;;;4990317;28;20689;-58
2022/11/04 07:32:59;;;;;;;5.20;2.92;;;26.50;33.00;;;;;;4990493;28;20197;-53
2022/11/04 07:35:30;;;;;;;5.15;2.78;;;26.50;32.40;;;;;;4990264;28;20225;-59
2022/11/04 07:38:03;;;;;;;6.43;2.92;;;26.50;32.50;;;;;;4990113;28;20205;-49
2022/11/04 07:40:35;;;;;;;4.55;2.55;;;26.40;32.40;;;;;;4990244;28;20209;-64
2022/11/04 07:43:06;;;;;;;4.90;2.42;;;26.40;32.60;;;;;;4990057;28;20264;-61
2022/11/04 07:45:36;;;;;;;4.13;2.72;;;26.40;32.60;;;;;;4990542;28;20201;-55
2022/11/04 07:48:07;;;;;;;4.03;2.40;;;26.30;32.60;;;;;;4990137;28;20198;-68
2022/11/04 07:50:42;;;;;;;4.10;2.20;;;26.30;32.70;;;;;;4989811;28;20207;-63
2022/11/04 07:53:14;;;;;;;5.22;2.38;;;26.20;32.70;;;;;;4989868;28;20207;-54
2022/11/04 07:55:48;;;;;;;4.38;2.00;;;26.20;33.40;;;;;;4989943;28;20205;-62
2022/11/04 07:58:19;;;;;;;4.57;2.42;;;26.20;32.90;;;;;;4989475;28;20229;-56
2022/11/04 08:00:50;;;;;;;3.65;2.20;;;26.20;32.90;;;;;;4989957;28;20193;-54
2022/11/04 08:03:20;;;;;;;3.28;1.90;;;26.10;33.00;;;;;;4990262;28;20312;-55
2022/11/04 08:05:58;;;;;;;3.63;2.40;;;26.10;33.00;;;;;;4989760;28;20201;-56
2022/11/04 08:08:31;;;;;;;3.05;1.98;;;26.10;33.00;;;;;;4989993;28;20221;-57
2022/11/04 08:11:03;;;;;;;4.93;2.03;;;26.00;33.00;;;;;;4990246;28;20194;-48
2022/11/04 08:13:35;;;;;;;4.63;2.22;;;26.00;33.10;;;;;;4990558;28;20206;-67
2022/11/04 08:16:08;;;;;;;3.28;2.15;;;26.00;33.10;;;;;;5004119;23;20204;-48
2022/11/04 08:18:39;;;;;;;4.75;2.00;;;26.00;33.20;;;;;;4971148;28;20228;-45
2022/11/04 08:21:11;;;;;;;3.05;2.00;;;25.90;33.20;;;;;;4989197;28;20213;-42
2022/11/04 08:23:44;;;;;;;3.55;1.85;;;25.90;33.30;;;;;;4991658;28;20225;-44
2022/11/04 08:26:18;;;;;;;3.25;1.85;;;25.80;33.40;;;;;;4993723;28;20197;-46
2022/11/04 08:28:48;;;;;;;3.05;1.63;;;25.80;33.40;;;;;;4993708;28;20214;-42
2022/11/04 08:31:22;;;;;;;3.65;1.80;;;25.80;33.50;;;;;;4993731;28;20193;-43
2022/11/04 08:33:54;;;;;;;2.97;1.77;;;25.70;33.50;;;;;;4993668;28;20201;-42
2022/11/04 08:36:26;;;;;;;2.70;1.75;;;25.70;33.60;;;;;;4993376;28;20214;-42
2022/11/04 08:38:59;;;;;;;3.10;1.58;;;25.70;33.60;;;;;;4993775;28;20217;-53
2022/11/04 08:41:33;;;;;;;1.95;1.50;;;25.70;33.70;;;;;;4995439;28;20198;-44
2022/11/04 08:44:04;;;;;;;2.70;1.45;;;25.60;33.70;;;;;;4988995;28;20205;-45
2022/11/04 08:46:36;;;;;;;2.58;1.60;;;25.60;33.70;;;;;;4994205;28;20276;-57
2022/11/04 08:49:07;;;;;;;3.22;1.88;;;25.60;33.80;;;;;;4993084;28;20304;-43
2022/11/04 08:51:40;;;;;;;3.20;1.63;;;25.60;33.90;;;;;;5009525;28;20205;-44
2022/11/04 08:54:13;;;;;;;2.08;1.42;;;25.50;34.00;;;;;;5005078;28;20193;-44
2022/11/04 08:56:44;;;;;;;3.03;1.70;;;25.50;34.00;;;;;;4994180;28;20201;-45
2022/11/04 08:59:16;;;;;;;2.22;1.35;;;25.40;34.10;;;;;;4993086;28;20213;-44
2022/11/04 09:01:47;;;;;;;2.60;1.33;;;25.40;34.20;;;;;;4989621;28;20315;-43
2022/11/04 09:04:18;;;;;;;3.97;1.70;;;25.30;34.20;;;;;;4988099;28;20225;-41
2022/11/04 09:06:49;;;;;;;2.40;1.30;;;25.30;34.20;;;;;;4991013;28;20213;-47
2022/11/04 09:09:22;;;;;;;2.80;1.48;;;25.30;34.30;;;;;;4992333;28;20220;-42
2022/11/04 09:11:53;;;;;;;1.90;1.20;;;25.30;34.30;;;;;;4991979;28;20205;-44
2022/11/04 09:14:24;;;;;;;2.05;1.20;;;25.30;34.40;;;;;;4992430;28;20277;-42
2022/11/04 09:19:31;;;;;;;1.58;1.20;;;25.20;34.50;;;;;;5579874;23;20255;-51
2022/11/04 09:22:02;;;;;;;1.48;1.20;;;25.20;34.50;;;;;;5031122;28;20311;-52
2022/11/04 09:24:34;;;;;;;2.97;1.23;;;25.10;34.50;;;;;;5031323;28;20546;-62
2022/11/04 09:27:06;;;;;;;2.38;1.17;;;25.10;35.20;;;;;;5031067;28;20196;-56
2022/11/04 09:29:37;;;;;;;1.73;1.05;;;25.10;34.60;;;;;;5017778;28;20220;-69
2022/11/04 09:32:09;;;;;;;1.60;1.10;;;25.00;34.60;;;;;;5011472;28;20211;-56
2022/11/04 09:34:41;;;;;;;2.30;1.30;;;25.00;34.70;;;;;;5009520;28;20228;-53
2022/11/04 09:37:12;;;;;;;1.95;1.15;;;24.90;34.70;;;;;;5011325;28;20197;-55
2022/11/04 09:39:44;;;;;;;1.38;1.02;;;24.90;34.80;;;;;;5010664;28;20600;-58
2022/11/04 09:42:39;;;;;;;1.70;1.00;;;24.90;34.90;;;;;;5011015;28;20229;-53
2022/11/04 09:45:14;;;;;;;1.75;1.00;;;24.90;34.90;;;;;;5006031;28;20291;-55
2022/11/04 09:47:47;;;;;;;2.15;1.20;;;24.90;35.00;;;;;;5010822;28;20315;-56
2022/11/04 09:50:25;;;;;;;1.40;0.93;;;24.80;34.90;;;;;;5010449;28;20220;-50
2022/11/04 09:53:00;;;;;;;1.95;0.90;;;24.80;35.00;;;;;;5011611;28;20201;-58
2022/11/04 09:55:40;;;;;;;1.60;0.90;;;24.80;35.10;;;;;;5011007;28;20211;-55
2022/11/04 09:58:15;;;;;;;1.88;1.00;;;24.70;35.00;;;;;;5011625;28;20230;-51
2022/11/04 10:00:51;;;;;;;1.27;0.80;;;24.70;35.10;;;;;;5010540;28;20689;-57
2022/11/04 10:03:31;;;;;;;1.52;0.93;;;24.70;35.20;;;;;;5010941;28;20232;-64
2022/11/04 10:06:14;;;;;;;1.75;0.90;;;24.60;35.20;;;;;;5009637;28;20197;-62
2022/11/04 10:08:59;;;;;;;1.75;1.10;;;24.60;35.30;;;;;;5008739;28;20216;-54
2022/11/04 10:11:40;;;;;;;1.08;0.75;;;24.60;35.40;;;;;;4992729;28;20201;-61
2022/11/04 10:14:25;;;;;;;1.67;0.90;;;24.50;35.40;;;;;;5030381;28;20200;-62
2022/11/04 10:17:07;;;;;;;1.42;1.10;;;24.50;35.50;;;;;;5030942;28;20196;-68
2022/11/04 10:19:51;;;;;;;1.70;0.90;;;24.50;35.50;;;;;;5017073;28;20313;-67
2022/11/04 10:22:30;;;;;;;1.20;0.93;;;24.40;35.50;;;;;;5006355;28;20224;-57
2022/11/04 10:25:10;;;;;;;1.75;1.00;;;24.40;35.60;;;;;;5004476;28;20200;-62
2022/11/04 10:27:47;;;;;;;1.67;0.93;;;24.40;35.60;;;;;;5009363;28;22324;-61
2022/11/04 10:30:20;;;;;;;1.27;0.90;;;24.40;35.60;;;;;;5009024;28;20227;-66
2022/11/04 10:33:00;;;;;;;1.67;0.80;;;24.30;35.60;;;;;;5010451;28;20287;-65
2022/11/04 10:35:38;;;;;;;1.45;0.93;;;24.30;35.70;;;;;;5008818;28;20196;-66
2022/11/04 10:38:22;;;;;;;2.92;1.17;;;24.30;35.80;;;;;;5010265;28;20291;-68
2022/11/04 10:40:56;;;;;;;0.80;0.70;;;24.20;35.80;;;;;;5003816;28;20215;-54
2022/11/04 10:43:33;;;;;;;0.98;0.85;;;24.20;35.90;;;;;;5009954;28;20228;-62
2022/11/04 10:46:17;;;;;;;1.33;0.88;;;24.20;36.00;;;;;;5010553;28;20200;-58
2022/11/04 10:48:53;;;;;;;1.75;0.80;;;24.10;36.00;;;;;;5009902;28;20592;-68
2022/11/04 10:51:24;;;;;;;1.70;1.10;;;24.10;36.10;;;;;;5010550;28;20684;-59
2022/11/04 10:53:58;;;;;;;0.90;0.80;;;24.10;36.10;;;;;;5010203;28;20200;-68
2022/11/04 10:56:37;;;;;;;1.33;0.70;;;24.00;36.10;;;;;;5009573;28;20213;-66
2022/11/04 10:59:24;;;;;;;1.48;0.90;;;24.00;36.10;;;;;;5010844;28;20208;-58
2022/11/04 11:01:56;;;;;;;1.35;0.90;;;24.00;36.10;;;;;;4997609;28;20196;-61
2022/11/04 11:04:32;;;;;;;1.45;0.80;;;24.00;36.10;;;;;;5005460;28;20217;-64
2022/11/04 11:07:05;;;;;;;1.92;0.90;;;24.00;36.20;;;;;;5010031;28;20199;-58
2022/11/04 11:09:37;;;;;;;1.10;0.77;;;23.90;36.10;;;;;;5010732;28;20220;-47
2022/11/04 11:12:22;;;;;;;0.75;0.63;;;23.90;36.20;;;;;;5010595;28;20204;-48
2022/11/04 11:14:55;;;;;;;2.35;0.70;;;23.90;36.30;;;;;;5005049;28;20686;-49
2022/11/04 11:17:37;;;;;;;1.42;0.60;;;23.80;36.30;;;;;;5009819;28;20201;-49
2022/11/04 11:20:22;;;;;;;1.25;0.80;;;23.80;36.30;;;;;;5010418;28;20603;-48
2022/11/04 11:22:53;;;;;;;1.00;0.77;;;23.80;36.40;;;;;;5003544;28;20255;-56
2022/11/04 11:25:27;;;;;;;0.73;0.60;;;23.80;36.40;;;;;;5010049;28;20201;-51
2022/11/04 11:28:00;;;;;;;1.05;0.63;;;23.70;36.40;;;;;;5007071;28;20201;-54
2022/11/04 11:30:40;;;;;;;1.35;0.70;;;23.70;36.40;;;;;;5007024;28;20653;-62
2022/11/04 11:33:21;;;;;;;1.00;0.57;;;23.70;36.50;;;;;;5010425;28;20547;-61
2022/11/04 11:35:55;;;;;;;1.02;0.80;;;23.70;36.50;;;;;;5010775;28;20196;-55
2022/11/04 11:38:27;;;;;;;1.42;0.70;;;23.70;36.50;;;;;;5009552;28;20660;-69
2022/11/04 11:41:09;;;;;;;1.38;0.70;;;23.60;36.50;;;;;;5008717;28;20193;-62
2022/11/04 11:43:44;;;;;;;0.68;0.50;;;23.60;36.60;;;;;;5000764;28;20229;-69
2022/11/04 11:46:23;;;;;;;1.67;0.70;;;23.60;36.50;;;;;;4993074;28;20233;-71
2022/11/04 11:48:59;;;;;;;1.25;0.77;;;23.50;36.60;;;;;;4995586;28;20283;-56
2022/11/04 11:51:32;;;;;;;0.93;0.60;;;23.50;36.60;;;;;;5011722;28;20682;-61
2022/11/04 11:54:32;;;;;;;1.17;0.80;;;23.50;36.60;;;;;;5011333;28;20559;-66
2022/11/04 11:57:07;;;;;;;1.38;0.90;;;23.50;36.70;;;;;;5010488;28;20201;-66
2022/11/04 11:59:46;;;;;;;1.83;0.77;;;23.50;36.70;;;;;;5014981;28;20251;-69
2022/11/04 12:02:33;;;;;;;0.90;0.60;;;23.40;36.80;;;;;;5015602;28;20200;-69
2022/11/04 12:05:04;;;;;;;0.88;0.60;;;23.40;36.80;;;;;;5014985;28;20211;-70
2022/11/04 12:07:44;;;;;;;1.13;0.90;;;23.40;36.90;;;;;;5014827;28;20197;-68
2022/11/04 12:10:22;;;;;;;0.93;0.60;;;23.30;36.90;;;;;;5014776;28;20212;-71
2022/11/04 12:13:04;;;;;;;1.67;1.08;;;23.30;36.90;;;;;;5015119;28;20204;-64
2022/11/04 12:15:49;;;;;;;1.45;0.80;;;23.30;36.90;;;;;;5015055;28;20196;-67
2022/11/04 12:18:55;;;;;;;1.52;0.80;;;23.30;36.90;;;;;;5014661;28;20209;-63
2022/11/04 12:21:32;;;;;;;1.23;0.85;;;23.30;36.90;;;;;;5015356;28;20201;-70
2022/11/04 12:24:09;;;;;;;1.30;0.63;;;23.20;36.90;;;;;;5017072;28;20691;-68
2022/11/04 12:26:44;;;;;;;1.30;0.77;;;23.30;37.00;;;;;;5014538;28;20196;-66
2022/11/04 12:29:29;;;;;;;0.88;0.50;;;23.20;37.00;;;;;;5014293;28;20212;-67
2022/11/04 12:32:09;;;;;;;1.20;0.85;;;23.20;37.00;;;;;;5014715;28;20205;-64
2022/11/04 12:34:53;;;;;;;1.05;0.70;;;23.10;37.00;;;;;;5014738;28;20412;-67
2022/11/04 12:37:34;;;;;;;0.80;0.60;;;23.20;37.10;;;;;;5014466;28;20213;-66
2022/11/04 12:40:18;;;;;;;1.10;0.80;;;23.10;37.10;;;;;;5014617;28;20220;-61
2022/11/04 12:43:00;;;;;;;0.93;0.80;;;23.00;37.10;;;;;;5014332;28;20664;-68
2022/11/04 12:45:44;;;;;;;1.90;0.60;;;23.00;37.20;;;;;;5014869;28;20203;-67
2022/11/04 12:48:31;;;;;;;2.30;1.08;;;23.00;37.20;;;;;;5014595;28;20652;-67
2022/11/04 12:51:10;;;;;;;1.38;0.80;;;23.00;37.20;;;;;;5014702;28;20216;-71
2022/11/04 12:54:07;;;;;;;1.40;0.90;;;22.90;37.20;;;;;;5014318;28;20660;-70
2022/11/04 12:56:40;;;;;;;1.35;0.93;;;22.90;37.30;;;;;;5014214;28;20201;-65
2022/11/04 12:59:43;;;;;;;0.90;0.73;;;22.90;37.30;;;;;;5014200;28;20217;-59
2022/11/04 13:02:22;;;;;;;1.73;0.82;;;22.90;37.50;;;;;;5014083;28;20558;-61
2022/11/04 13:05:05;;;;;;;2.20;0.73;;;22.90;37.60;;;;;;5014045;28;20229;-65
2022/11/04 13:07:44;;;;;;;1.48;0.85;;;22.90;37.70;;;;;;5014005;28;20201;-66
2022/11/04 13:10:22;;;;;;;1.80;1.00;;;22.80;37.70;;;;;;5012492;28;20235;-60
2022/11/04 13:12:55;;;;;;;2.05;1.00;;;22.80;37.90;;;;;;5025884;28;20203;-67
2022/11/04 13:15:29;;;;;;;1.90;1.00;;;22.80;38.00;;;;;;5033574;28;20195;-66
2022/11/04 13:18:02;;;;;;;3.22;1.35;;;22.80;38.10;;;;;;5033163;28;20192;-68
2022/11/04 13:20:38;;;;;;;2.38;1.15;;;22.80;38.20;;;;;;5016843;28;20224;-66
2022/11/04 13:23:16;;;;;;;3.42;1.23;;;22.70;38.30;;;;;;5013649;28;20196;-63
2022/11/04 13:25:49;;;;;;;2.33;1.30;;;22.70;38.40;;;;;;5013752;28;20196;-64
2022/11/04 13:28:21;;;;;;;2.58;1.13;;;22.70;38.50;;;;;;5013456;28;20201;-66
2022/11/04 13:31:01;;;;;;;3.00;1.17;;;22.60;38.50;;;;;;5013013;28;20201;-67
2022/11/04 13:33:42;;;;;;;3.20;1.10;;;22.60;38.60;;;;;;5013172;28;20220;-67
2022/11/04 13:36:26;;;;;;;5.03;1.30;;;22.60;38.70;;;;;;5013643;28;20216;-67
2022/11/04 13:39:01;;;;;;;2.78;1.10;;;22.60;38.80;;;;;;5013308;28;20751;-65
2022/11/04 13:41:56;;;;;;;2.28;1.05;;;22.50;38.80;;;;;;5013656;28;20196;-62
2022/11/04 13:44:30;;;;;;;3.17;1.27;;;22.60;38.90;;;;;;5013636;28;20225;-67
2022/11/04 13:47:05;;;;;;;2.47;1.27;;;22.50;38.80;;;;;;5013300;28;20208;-64
2022/11/04 13:49:38;;;;;;;3.22;1.30;;;22.50;38.90;;;;;;5013249;28;20232;-60
2022/11/04 13:52:11;;;;;;;3.95;1.15;;;22.50;39.00;;;;;;5013046;28;20204;-66
2022/11/04 13:54:47;;;;;;;3.15;1.38;;;22.50;39.10;;;;;;5013248;28;20212;-63
2022/11/04 13:57:19;;;;;;;4.20;1.48;;;22.40;39.20;;;;;;5012733;28;20196;-57
2022/11/04 14:00:24;;;;;;;2.92;1.33;;;22.40;39.20;;;;;;5012557;28;20227;-62